sensor_id;sensor_type;location;lat;lon;timestamp;temperature;humidity
68354;DHT22;55274;43.060;25.618;2023-05-16T00:00:23;20.90;70.30
68354;DHT22;55274;43.060;25.618;2023-05-16T00:02:52;21.00;69.30
68354;DHT22;55274;43.060;25.618;2023-05-16T00:05:18;21.10;68.60
68354;DHT22;55274;43.060;25.618;2023-05-16T00:07:45;21.20;68.10
68354;DHT22;55274;43.060;25.618;2023-05-16T00:10:11;21.30;67.70
68354;DHT22;55274;43.060;25.618;2023-05-16T00:12:37;21.30;67.90
68354;DHT22;55274;43.060;25.618;2023-05-16T00:15:08;21.30;68.10
68354;DHT22;55274;43.060;25.618;2023-05-16T00:17:37;21.30;68.10
68354;DHT22;55274;43.060;25.618;2023-05-16T00:20:03;21.30;68.20
68354;DHT22;55274;43.060;25.618;2023-05-16T00:22:39;21.30;67.90
68354;DHT22;55274;43.060;25.618;2023-05-16T00:25:05;21.30;67.90
68354;DHT22;55274;43.060;25.618;2023-05-16T00:27:33;21.30;67.90
68354;DHT22;55274;43.060;25.618;2023-05-16T00:30:00;21.30;67.80
68354;DHT22;55274;43.060;25.618;2023-05-16T00:32:26;21.30;68.00
68354;DHT22;55274;43.060;25.618;2023-05-16T00:34:52;21.30;67.60
68354;DHT22;55274;43.060;25.618;2023-05-16T00:37:17;21.30;67.60
68354;DHT22;55274;43.060;25.618;2023-05-16T00:39:43;21.40;67.10
68354;DHT22;55274;43.060;25.618;2023-05-16T00:42:09;21.40;67.00
68354;DHT22;55274;43.060;25.618;2023-05-16T00:44:35;21.40;67.00
68354;DHT22;55274;43.060;25.618;2023-05-16T00:47:00;21.40;66.80
68354;DHT22;55274;43.060;25.618;2023-05-16T00:49:27;21.50;66.90
68354;DHT22;55274;43.060;25.618;2023-05-16T00:51:55;21.50;66.90
68354;DHT22;55274;43.060;25.618;2023-05-16T00:54:22;21.50;67.00
68354;DHT22;55274;43.060;25.618;2023-05-16T00:56:51;21.40;66.80
68354;DHT22;55274;43.060;25.618;2023-05-16T00:59:18;21.40;66.80
68354;DHT22;55274;43.060;25.618;2023-05-16T01:01:45;21.50;66.80
68354;DHT22;55274;43.060;25.618;2023-05-16T01:04:15;21.50;66.70
68354;DHT22;55274;43.060;25.618;2023-05-16T01:06:41;21.50;66.70
68354;DHT22;55274;43.060;25.618;2023-05-16T01:09:07;21.50;66.50
68354;DHT22;55274;43.060;25.618;2023-05-16T01:15:07;21.50;66.60
68354;DHT22;55274;43.060;25.618;2023-05-16T01:20:43;21.50;66.40
68354;DHT22;55274;43.060;25.618;2023-05-16T01:23:36;21.50;66.20
68354;DHT22;55274;43.060;25.618;2023-05-16T01:26:24;21.50;66.40
68354;DHT22;55274;43.060;25.618;2023-05-16T01:28:51;21.50;66.50
68354;DHT22;55274;43.060;25.618;2023-05-16T01:31:18;21.50;66.70
68354;DHT22;55274;43.060;25.618;2023-05-16T01:33:43;21.50;66.80
68354;DHT22;55274;43.060;25.618;2023-05-16T01:36:34;21.40;66.70
68354;DHT22;55274;43.060;25.618;2023-05-16T01:39:19;21.40;66.70
68354;DHT22;55274;43.060;25.618;2023-05-16T01:44:22;21.40;66.60
68354;DHT22;55274;43.060;25.618;2023-05-16T01:46:55;21.40;66.90
68354;DHT22;55274;43.060;25.618;2023-05-16T01:51:55;21.30;68.30
68354;DHT22;55274;43.060;25.618;2023-05-16T01:54:25;21.30;67.20
68354;DHT22;55274;43.060;25.618;2023-05-16T01:56:54;21.30;67.00
68354;DHT22;55274;43.060;25.618;2023-05-16T01:59:21;21.30;67.30
68354;DHT22;55274;43.060;25.618;2023-05-16T02:01:48;21.30;67.20
68354;DHT22;55274;43.060;25.618;2023-05-16T02:04:14;21.30;66.90
68354;DHT22;55274;43.060;25.618;2023-05-16T02:06:43;21.30;67.00
68354;DHT22;55274;43.060;25.618;2023-05-16T02:09:09;21.20;66.90
68354;DHT22;55274;43.060;25.618;2023-05-16T02:11:34;21.30;66.90
68354;DHT22;55274;43.060;25.618;2023-05-16T02:14:00;21.30;67.00
68354;DHT22;55274;43.060;25.618;2023-05-16T02:16:26;21.20;66.90
68354;DHT22;55274;43.060;25.618;2023-05-16T02:18:52;21.20;67.20
68354;DHT22;55274;43.060;25.618;2023-05-16T02:21:18;21.20;67.50
68354;DHT22;55274;43.060;25.618;2023-05-16T02:23:43;21.10;68.30
68354;DHT22;55274;43.060;25.618;2023-05-16T02:26:09;21.00;69.10
68354;DHT22;55274;43.060;25.618;2023-05-16T02:28:35;21.00;68.40
68354;DHT22;55274;43.060;25.618;2023-05-16T02:31:01;20.90;68.70
68354;DHT22;55274;43.060;25.618;2023-05-16T02:33:27;20.90;68.60
68354;DHT22;55274;43.060;25.618;2023-05-16T02:35:53;20.90;68.70
68354;DHT22;55274;43.060;25.618;2023-05-16T02:38:19;20.90;69.60
68354;DHT22;55274;43.060;25.618;2023-05-16T02:40:48;20.80;69.40
68354;DHT22;55274;43.060;25.618;2023-05-16T02:43:15;20.70;69.60
68354;DHT22;55274;43.060;25.618;2023-05-16T02:45:40;20.70;69.90
68354;DHT22;55274;43.060;25.618;2023-05-16T02:48:06;20.60;70.50
68354;DHT22;55274;43.060;25.618;2023-05-16T02:50:33;20.50;71.10
68354;DHT22;55274;43.060;25.618;2023-05-16T02:52:59;20.50;71.00
68354;DHT22;55274;43.060;25.618;2023-05-16T02:55:27;20.40;70.80
68354;DHT22;55274;43.060;25.618;2023-05-16T02:57:53;20.40;71.40
68354;DHT22;55274;43.060;25.618;2023-05-16T03:00:19;20.40;70.90
68354;DHT22;55274;43.060;25.618;2023-05-16T03:02:45;20.30;71.30
68354;DHT22;55274;43.060;25.618;2023-05-16T03:05:11;20.10;74.10
68354;DHT22;55274;43.060;25.618;2023-05-16T03:07:37;20.00;74.60
68354;DHT22;55274;43.060;25.618;2023-05-16T03:10:04;19.90;75.00
68354;DHT22;55274;43.060;25.618;2023-05-16T03:12:30;19.80;75.60
68354;DHT22;55274;43.060;25.618;2023-05-16T03:14:56;19.70;76.00
68354;DHT22;55274;43.060;25.618;2023-05-16T03:17:21;19.70;76.80
68354;DHT22;55274;43.060;25.618;2023-05-16T03:19:47;19.60;76.90
68354;DHT22;55274;43.060;25.618;2023-05-16T03:22:13;19.40;78.00
68354;DHT22;55274;43.060;25.618;2023-05-16T03:24:39;19.40;78.20
68354;DHT22;55274;43.060;25.618;2023-05-16T03:27:05;19.40;78.10
68354;DHT22;55274;43.060;25.618;2023-05-16T03:29:31;19.30;78.30
68354;DHT22;55274;43.060;25.618;2023-05-16T03:31:57;19.20;79.30
68354;DHT22;55274;43.060;25.618;2023-05-16T03:34:22;19.20;79.70
68354;DHT22;55274;43.060;25.618;2023-05-16T03:36:49;19.20;80.00
68354;DHT22;55274;43.060;25.618;2023-05-16T03:39:16;19.20;80.70
68354;DHT22;55274;43.060;25.618;2023-05-16T03:41:42;19.10;80.20
68354;DHT22;55274;43.060;25.618;2023-05-16T03:44:08;19.10;79.90
68354;DHT22;55274;43.060;25.618;2023-05-16T03:46:34;19.20;80.40
68354;DHT22;55274;43.060;25.618;2023-05-16T03:49:01;19.20;80.20
68354;DHT22;55274;43.060;25.618;2023-05-16T03:51:27;19.20;80.50
68354;DHT22;55274;43.060;25.618;2023-05-16T03:53:53;19.20;80.70
68354;DHT22;55274;43.060;25.618;2023-05-16T03:56:19;19.20;81.10
68354;DHT22;55274;43.060;25.618;2023-05-16T03:58:46;19.30;81.00
68354;DHT22;55274;43.060;25.618;2023-05-16T04:01:12;19.40;79.10
68354;DHT22;55274;43.060;25.618;2023-05-16T04:03:38;19.50;80.30
68354;DHT22;55274;43.060;25.618;2023-05-16T04:06:05;19.70;76.20
68354;DHT22;55274;43.060;25.618;2023-05-16T04:08:31;19.80;80.00
68354;DHT22;55274;43.060;25.618;2023-05-16T04:10:57;19.80;80.00
68354;DHT22;55274;43.060;25.618;2023-05-16T04:13:22;19.80;80.60
68354;DHT22;55274;43.060;25.618;2023-05-16T04:15:48;19.80;80.40
68354;DHT22;55274;43.060;25.618;2023-05-16T04:18:14;19.90;77.80
68354;DHT22;55274;43.060;25.618;2023-05-16T04:20:41;20.20;75.00
68354;DHT22;55274;43.060;25.618;2023-05-16T04:23:07;20.50;72.30
68354;DHT22;55274;43.060;25.618;2023-05-16T04:25:35;20.70;72.10
68354;DHT22;55274;43.060;25.618;2023-05-16T04:28:01;20.90;71.40
68354;DHT22;55274;43.060;25.618;2023-05-16T04:30:27;21.00;69.70
68354;DHT22;55274;43.060;25.618;2023-05-16T04:32:52;21.30;68.60
68354;DHT22;55274;43.060;25.618;2023-05-16T04:35:18;21.70;67.50
68354;DHT22;55274;43.060;25.618;2023-05-16T04:37:44;21.90;66.80
68354;DHT22;55274;43.060;25.618;2023-05-16T04:40:10;22.00;66.00
68354;DHT22;55274;43.060;25.618;2023-05-16T04:42:37;22.20;66.30
68354;DHT22;55274;43.060;25.618;2023-05-16T04:45:03;22.30;66.00
68354;DHT22;55274;43.060;25.618;2023-05-16T04:47:31;22.50;65.70
68354;DHT22;55274;43.060;25.618;2023-05-16T04:49:57;22.50;65.30
68354;DHT22;55274;43.060;25.618;2023-05-16T04:52:22;22.50;65.40
68354;DHT22;55274;43.060;25.618;2023-05-16T04:54:51;22.60;65.40
68354;DHT22;55274;43.060;25.618;2023-05-16T04:57:17;22.60;65.10
68354;DHT22;55274;43.060;25.618;2023-05-16T04:59:43;22.60;64.90
68354;DHT22;55274;43.060;25.618;2023-05-16T05:02:09;22.70;65.10
68354;DHT22;55274;43.060;25.618;2023-05-16T05:04:35;22.80;64.80
68354;DHT22;55274;43.060;25.618;2023-05-16T05:07:02;22.80;64.80
68354;DHT22;55274;43.060;25.618;2023-05-16T05:09:28;22.80;64.60
68354;DHT22;55274;43.060;25.618;2023-05-16T05:11:53;22.80;64.90
68354;DHT22;55274;43.060;25.618;2023-05-16T05:14:19;22.80;64.70
68354;DHT22;55274;43.060;25.618;2023-05-16T05:16:45;22.80;64.70
68354;DHT22;55274;43.060;25.618;2023-05-16T05:19:11;22.90;64.60
68354;DHT22;55274;43.060;25.618;2023-05-16T05:21:37;22.90;64.20
68354;DHT22;55274;43.060;25.618;2023-05-16T05:24:03;22.90;64.60
68354;DHT22;55274;43.060;25.618;2023-05-16T05:26:29;23.00;64.50
68354;DHT22;55274;43.060;25.618;2023-05-16T05:28:55;23.00;63.80
68354;DHT22;55274;43.060;25.618;2023-05-16T05:31:20;23.10;63.60
68354;DHT22;55274;43.060;25.618;2023-05-16T05:33:46;23.20;63.20
68354;DHT22;55274;43.060;25.618;2023-05-16T05:36:12;23.60;62.70
68354;DHT22;55274;43.060;25.618;2023-05-16T05:38:37;23.90;61.80
68354;DHT22;55274;43.060;25.618;2023-05-16T05:41:04;24.20;60.20
68354;DHT22;55274;43.060;25.618;2023-05-16T05:43:30;24.30;59.80
68354;DHT22;55274;43.060;25.618;2023-05-16T05:45:55;24.50;59.50
68354;DHT22;55274;43.060;25.618;2023-05-16T05:48:21;24.50;59.00
68354;DHT22;55274;43.060;25.618;2023-05-16T05:50:47;24.40;59.50
68354;DHT22;55274;43.060;25.618;2023-05-16T05:53:13;24.40;59.00
68354;DHT22;55274;43.060;25.618;2023-05-16T05:55:38;24.30;59.30
68354;DHT22;55274;43.060;25.618;2023-05-16T05:58:06;24.40;59.50
68354;DHT22;55274;43.060;25.618;2023-05-16T06:00:32;24.40;58.90
68354;DHT22;55274;43.060;25.618;2023-05-16T06:02:58;24.20;59.30
68354;DHT22;55274;43.060;25.618;2023-05-16T06:05:23;24.20;58.60
68354;DHT22;55274;43.060;25.618;2023-05-16T06:07:49;24.10;59.10
68354;DHT22;55274;43.060;25.618;2023-05-16T06:10:15;24.10;58.60
68354;DHT22;55274;43.060;25.618;2023-05-16T06:12:41;24.20;58.70
68354;DHT22;55274;43.060;25.618;2023-05-16T06:15:07;24.20;58.70
68354;DHT22;55274;43.060;25.618;2023-05-16T06:17:33;24.20;58.30
68354;DHT22;55274;43.060;25.618;2023-05-16T06:19:58;24.10;58.30
68354;DHT22;55274;43.060;25.618;2023-05-16T06:22:24;24.10;58.20
68354;DHT22;55274;43.060;25.618;2023-05-16T06:24:50;24.10;57.80
68354;DHT22;55274;43.060;25.618;2023-05-16T06:27:16;24.10;57.10
68354;DHT22;55274;43.060;25.618;2023-05-16T06:29:42;24.10;57.90
68354;DHT22;55274;43.060;25.618;2023-05-16T06:32:07;24.20;57.50
68354;DHT22;55274;43.060;25.618;2023-05-16T06:34:33;24.10;56.90
68354;DHT22;55274;43.060;25.618;2023-05-16T06:36:59;24.10;56.80
68354;DHT22;55274;43.060;25.618;2023-05-16T06:39:28;24.20;56.80
68354;DHT22;55274;43.060;25.618;2023-05-16T06:41:53;24.20;56.40
68354;DHT22;55274;43.060;25.618;2023-05-16T06:44:20;24.20;56.50
68354;DHT22;55274;43.060;25.618;2023-05-16T06:46:46;24.20;56.70
68354;DHT22;55274;43.060;25.618;2023-05-16T06:49:11;24.10;56.30
68354;DHT22;55274;43.060;25.618;2023-05-16T06:51:37;24.10;57.00
68354;DHT22;55274;43.060;25.618;2023-05-16T06:54:03;24.10;57.50
68354;DHT22;55274;43.060;25.618;2023-05-16T06:56:29;24.20;58.10
68354;DHT22;55274;43.060;25.618;2023-05-16T06:58:56;24.00;57.80
68354;DHT22;55274;43.060;25.618;2023-05-16T07:01:21;24.00;58.30
68354;DHT22;55274;43.060;25.618;2023-05-16T07:03:50;24.00;59.10
68354;DHT22;55274;43.060;25.618;2023-05-16T07:06:16;24.00;59.20
68354;DHT22;55274;43.060;25.618;2023-05-16T07:08:42;24.00;58.60
68354;DHT22;55274;43.060;25.618;2023-05-16T07:11:08;24.00;58.60
68354;DHT22;55274;43.060;25.618;2023-05-16T07:13:36;24.00;59.20
68354;DHT22;55274;43.060;25.618;2023-05-16T07:16:01;23.90;60.50
68354;DHT22;55274;43.060;25.618;2023-05-16T07:18:27;23.90;60.10
68354;DHT22;55274;43.060;25.618;2023-05-16T07:20:53;23.80;60.70
68354;DHT22;55274;43.060;25.618;2023-05-16T07:23:19;23.80;60.80
68354;DHT22;55274;43.060;25.618;2023-05-16T07:25:45;23.90;61.00
68354;DHT22;55274;43.060;25.618;2023-05-16T07:28:11;23.90;61.40
68354;DHT22;55274;43.060;25.618;2023-05-16T07:30:36;24.00;60.70
68354;DHT22;55274;43.060;25.618;2023-05-16T07:33:02;24.00;60.20
68354;DHT22;55274;43.060;25.618;2023-05-16T07:35:28;24.00;59.70
68354;DHT22;55274;43.060;25.618;2023-05-16T07:37:54;24.00;59.60
68354;DHT22;55274;43.060;25.618;2023-05-16T07:40:19;24.10;59.80
68354;DHT22;55274;43.060;25.618;2023-05-16T07:42:50;24.00;59.30
68354;DHT22;55274;43.060;25.618;2023-05-16T07:45:16;24.00;61.10
68354;DHT22;55274;43.060;25.618;2023-05-16T07:47:41;24.00;62.50
68354;DHT22;55274;43.060;25.618;2023-05-16T07:50:08;24.00;63.00
68354;DHT22;55274;43.060;25.618;2023-05-16T07:52:34;24.10;61.00
68354;DHT22;55274;43.060;25.618;2023-05-16T07:55:00;24.00;59.80
68354;DHT22;55274;43.060;25.618;2023-05-16T07:57:26;24.00;60.70
68354;DHT22;55274;43.060;25.618;2023-05-16T07:59:52;24.00;59.70
68354;DHT22;55274;43.060;25.618;2023-05-16T08:02:18;24.00;60.00
68354;DHT22;55274;43.060;25.618;2023-05-16T08:04:44;24.10;62.10
68354;DHT22;55274;43.060;25.618;2023-05-16T08:07:09;24.10;63.90
68354;DHT22;55274;43.060;25.618;2023-05-16T08:09:35;24.20;63.50
68354;DHT22;55274;43.060;25.618;2023-05-16T08:12:02;24.20;63.20
68354;DHT22;55274;43.060;25.618;2023-05-16T08:14:30;24.10;62.00
68354;DHT22;55274;43.060;25.618;2023-05-16T08:16:59;24.00;61.10
68354;DHT22;55274;43.060;25.618;2023-05-16T08:19:25;24.00;61.80
68354;DHT22;55274;43.060;25.618;2023-05-16T08:21:51;24.10;64.70
68354;DHT22;55274;43.060;25.618;2023-05-16T08:24:17;24.00;62.80
68354;DHT22;55274;43.060;25.618;2023-05-16T08:26:43;24.00;65.10
68354;DHT22;55274;43.060;25.618;2023-05-16T08:29:08;24.10;65.50
68354;DHT22;55274;43.060;25.618;2023-05-16T08:31:34;24.10;64.70
68354;DHT22;55274;43.060;25.618;2023-05-16T08:34:00;24.20;66.80
68354;DHT22;55274;43.060;25.618;2023-05-16T08:36:27;24.20;68.60
68354;DHT22;55274;43.060;25.618;2023-05-16T08:38:53;24.10;67.20
68354;DHT22;55274;43.060;25.618;2023-05-16T08:41:19;24.20;68.00
68354;DHT22;55274;43.060;25.618;2023-05-16T08:43:46;24.20;69.70
68354;DHT22;55274;43.060;25.618;2023-05-16T08:46:12;24.10;67.40
68354;DHT22;55274;43.060;25.618;2023-05-16T08:48:39;24.10;67.90
68354;DHT22;55274;43.060;25.618;2023-05-16T08:51:08;24.10;67.40
68354;DHT22;55274;43.060;25.618;2023-05-16T08:53:41;24.20;66.80
68354;DHT22;55274;43.060;25.618;2023-05-16T08:56:08;24.30;70.00
68354;DHT22;55274;43.060;25.618;2023-05-16T08:58:35;24.40;69.70
68354;DHT22;55274;43.060;25.618;2023-05-16T09:01:03;24.50;68.70
68354;DHT22;55274;43.060;25.618;2023-05-16T09:03:35;24.60;68.40
68354;DHT22;55274;43.060;25.618;2023-05-16T09:06:05;24.60;67.20
68354;DHT22;55274;43.060;25.618;2023-05-16T09:08:31;24.60;67.20
68354;DHT22;55274;43.060;25.618;2023-05-16T09:10:57;24.60;68.70
68354;DHT22;55274;43.060;25.618;2023-05-16T09:13:24;24.60;70.30
68354;DHT22;55274;43.060;25.618;2023-05-16T09:18:34;24.60;68.70
68354;DHT22;55274;43.060;25.618;2023-05-16T09:21:00;24.60;73.50
68354;DHT22;55274;43.060;25.618;2023-05-16T09:23:26;24.50;74.10
68354;DHT22;55274;43.060;25.618;2023-05-16T09:25:52;24.50;74.00
68354;DHT22;55274;43.060;25.618;2023-05-16T09:28:18;24.40;74.10
68354;DHT22;55274;43.060;25.618;2023-05-16T09:30:45;24.40;74.50
68354;DHT22;55274;43.060;25.618;2023-05-16T09:33:11;24.40;76.20
68354;DHT22;55274;43.060;25.618;2023-05-16T09:35:38;24.30;75.90
68354;DHT22;55274;43.060;25.618;2023-05-16T09:38:03;24.00;74.60
68354;DHT22;55274;43.060;25.618;2023-05-16T09:40:29;24.10;73.90
68354;DHT22;55274;43.060;25.618;2023-05-16T09:43:02;24.00;73.90
68354;DHT22;55274;43.060;25.618;2023-05-16T09:45:35;24.00;76.40
68354;DHT22;55274;43.060;25.618;2023-05-16T09:48:07;23.90;78.90
68354;DHT22;55274;43.060;25.618;2023-05-16T09:50:34;23.80;79.10
68354;DHT22;55274;43.060;25.618;2023-05-16T09:53:01;23.80;76.40
68354;DHT22;55274;43.060;25.618;2023-05-16T09:55:26;23.70;76.70
68354;DHT22;55274;43.060;25.618;2023-05-16T09:57:52;23.80;77.20
68354;DHT22;55274;43.060;25.618;2023-05-16T10:00:18;23.90;78.20
68354;DHT22;55274;43.060;25.618;2023-05-16T10:02:44;23.90;77.80
68354;DHT22;55274;43.060;25.618;2023-05-16T10:05:10;24.00;78.50
68354;DHT22;55274;43.060;25.618;2023-05-16T10:07:36;24.00;79.00
68354;DHT22;55274;43.060;25.618;2023-05-16T10:10:07;24.00;79.60
68354;DHT22;55274;43.060;25.618;2023-05-16T10:12:34;23.90;79.40
68354;DHT22;55274;43.060;25.618;2023-05-16T10:15:03;23.80;77.30
68354;DHT22;55274;43.060;25.618;2023-05-16T10:17:32;23.90;73.70
68354;DHT22;55274;43.060;25.618;2023-05-16T10:20:01;23.90;78.60
68354;DHT22;55274;43.060;25.618;2023-05-16T10:22:35;23.90;80.10
68354;DHT22;55274;43.060;25.618;2023-05-16T10:25:07;23.80;77.70
68354;DHT22;55274;43.060;25.618;2023-05-16T10:27:35;23.90;77.80
68354;DHT22;55274;43.060;25.618;2023-05-16T10:30:02;24.00;78.90
68354;DHT22;55274;43.060;25.618;2023-05-16T10:32:30;24.00;78.40
68354;DHT22;55274;43.060;25.618;2023-05-16T10:34:56;24.10;77.10
68354;DHT22;55274;43.060;25.618;2023-05-16T10:37:28;24.00;77.60
68354;DHT22;55274;43.060;25.618;2023-05-16T10:39:54;24.00;78.90
68354;DHT22;55274;43.060;25.618;2023-05-16T10:42:21;24.10;76.40
68354;DHT22;55274;43.060;25.618;2023-05-16T10:44:47;24.20;75.20
68354;DHT22;55274;43.060;25.618;2023-05-16T10:47:18;24.40;74.80
68354;DHT22;55274;43.060;25.618;2023-05-16T10:49:44;24.50;77.40
68354;DHT22;55274;43.060;25.618;2023-05-16T10:52:11;24.50;77.90
68354;DHT22;55274;43.060;25.618;2023-05-16T10:54:40;24.50;78.40
68354;DHT22;55274;43.060;25.618;2023-05-16T10:57:09;24.60;77.10
68354;DHT22;55274;43.060;25.618;2023-05-16T10:59:54;24.60;76.90
68354;DHT22;55274;43.060;25.618;2023-05-16T11:02:39;24.80;76.40
68354;DHT22;55274;43.060;25.618;2023-05-16T11:05:06;24.90;76.60
68354;DHT22;55274;43.060;25.618;2023-05-16T11:07:37;25.00;75.70
68354;DHT22;55274;43.060;25.618;2023-05-16T11:10:10;25.10;76.60
68354;DHT22;55274;43.060;25.618;2023-05-16T11:12:48;25.20;74.50
68354;DHT22;55274;43.060;25.618;2023-05-16T11:15:27;25.40;76.50
68354;DHT22;55274;43.060;25.618;2023-05-16T11:18:15;25.50;75.70
68354;DHT22;55274;43.060;25.618;2023-05-16T11:20:42;25.60;73.60
68354;DHT22;55274;43.060;25.618;2023-05-16T11:23:28;25.80;73.60
68354;DHT22;55274;43.060;25.618;2023-05-16T11:25:55;26.00;72.90
68354;DHT22;55274;43.060;25.618;2023-05-16T11:28:24;26.20;69.10
68354;DHT22;55274;43.060;25.618;2023-05-16T11:30:52;26.30;67.90
68354;DHT22;55274;43.060;25.618;2023-05-16T11:33:21;26.50;66.60
68354;DHT22;55274;43.060;25.618;2023-05-16T11:36:04;26.70;67.20
68354;DHT22;55274;43.060;25.618;2023-05-16T11:38:31;26.80;65.70
68354;DHT22;55274;43.060;25.618;2023-05-16T11:41:02;26.70;63.90
68354;DHT22;55274;43.060;25.618;2023-05-16T11:43:28;26.70;62.50
68354;DHT22;55274;43.060;25.618;2023-05-16T11:45:55;26.80;59.90
68354;DHT22;55274;43.060;25.618;2023-05-16T11:48:24;26.80;59.20
68354;DHT22;55274;43.060;25.618;2023-05-16T11:50:50;26.70;59.30
68354;DHT22;55274;43.060;25.618;2023-05-16T11:53:18;26.70;59.10
68354;DHT22;55274;43.060;25.618;2023-05-16T11:55:44;26.70;59.80
68354;DHT22;55274;43.060;25.618;2023-05-16T11:58:11;26.80;59.90
68354;DHT22;55274;43.060;25.618;2023-05-16T12:00:46;26.80;59.80
68354;DHT22;55274;43.060;25.618;2023-05-16T12:03:12;26.80;60.70
68354;DHT22;55274;43.060;25.618;2023-05-16T12:05:38;26.80;61.20
68354;DHT22;55274;43.060;25.618;2023-05-16T12:08:04;26.80;61.60
68354;DHT22;55274;43.060;25.618;2023-05-16T12:10:31;26.80;62.60
68354;DHT22;55274;43.060;25.618;2023-05-16T12:13:00;26.70;61.90
68354;DHT22;55274;43.060;25.618;2023-05-16T12:15:26;26.60;62.90
68354;DHT22;55274;43.060;25.618;2023-05-16T12:17:52;26.60;63.20
68354;DHT22;55274;43.060;25.618;2023-05-16T12:20:19;26.50;64.30
68354;DHT22;55274;43.060;25.618;2023-05-16T12:22:45;26.50;63.30
68354;DHT22;55274;43.060;25.618;2023-05-16T12:25:31;26.50;64.20
68354;DHT22;55274;43.060;25.618;2023-05-16T12:27:59;26.40;64.60
68354;DHT22;55274;43.060;25.618;2023-05-16T12:30:26;26.50;66.50
68354;DHT22;55274;43.060;25.618;2023-05-16T12:32:55;26.40;66.60
68354;DHT22;55274;43.060;25.618;2023-05-16T12:35:22;26.40;67.20
68354;DHT22;55274;43.060;25.618;2023-05-16T12:37:48;26.40;68.70
68354;DHT22;55274;43.060;25.618;2023-05-16T12:40:16;26.30;69.50
68354;DHT22;55274;43.060;25.618;2023-05-16T12:42:58;26.20;69.40
68354;DHT22;55274;43.060;25.618;2023-05-16T12:45:26;26.10;68.90
68354;DHT22;55274;43.060;25.618;2023-05-16T12:47:52;26.00;68.60
68354;DHT22;55274;43.060;25.618;2023-05-16T12:50:18;25.90;67.70
68354;DHT22;55274;43.060;25.618;2023-05-16T12:52:52;25.90;68.80
68354;DHT22;55274;43.060;25.618;2023-05-16T12:55:20;25.90;67.20
68354;DHT22;55274;43.060;25.618;2023-05-16T12:57:46;25.90;67.80
68354;DHT22;55274;43.060;25.618;2023-05-16T13:00:13;25.90;68.10
68354;DHT22;55274;43.060;25.618;2023-05-16T13:02:40;25.90;68.90
68354;DHT22;55274;43.060;25.618;2023-05-16T13:05:06;26.00;67.70
68354;DHT22;55274;43.060;25.618;2023-05-16T13:07:33;26.00;67.90
68354;DHT22;55274;43.060;25.618;2023-05-16T13:09:59;26.10;68.40
68354;DHT22;55274;43.060;25.618;2023-05-16T13:12:25;26.10;66.70
68354;DHT22;55274;43.060;25.618;2023-05-16T13:14:54;26.10;66.30
68354;DHT22;55274;43.060;25.618;2023-05-16T13:17:21;26.10;66.00
68354;DHT22;55274;43.060;25.618;2023-05-16T13:19:48;26.20;68.70
68354;DHT22;55274;43.060;25.618;2023-05-16T13:22:14;26.30;69.60
68354;DHT22;55274;43.060;25.618;2023-05-16T13:24:40;26.30;69.70
68354;DHT22;55274;43.060;25.618;2023-05-16T13:27:06;26.30;71.90
68354;DHT22;55274;43.060;25.618;2023-05-16T13:29:32;26.30;71.30
68354;DHT22;55274;43.060;25.618;2023-05-16T13:31:58;26.30;72.20
68354;DHT22;55274;43.060;25.618;2023-05-16T13:34:23;26.20;71.70
68354;DHT22;55274;43.060;25.618;2023-05-16T13:36:49;26.20;72.70
68354;DHT22;55274;43.060;25.618;2023-05-16T13:39:15;26.10;73.70
68354;DHT22;55274;43.060;25.618;2023-05-16T13:41:41;26.00;72.90
68354;DHT22;55274;43.060;25.618;2023-05-16T13:44:07;26.00;73.60
68354;DHT22;55274;43.060;25.618;2023-05-16T13:46:33;26.10;74.80
68354;DHT22;55274;43.060;25.618;2023-05-16T13:48:59;26.00;76.30
68354;DHT22;55274;43.060;25.618;2023-05-16T13:51:24;25.90;74.60
68354;DHT22;55274;43.060;25.618;2023-05-16T13:53:50;25.90;75.10
68354;DHT22;55274;43.060;25.618;2023-05-16T13:56:16;25.90;75.70
68354;DHT22;55274;43.060;25.618;2023-05-16T13:58:42;25.80;77.20
68354;DHT22;55274;43.060;25.618;2023-05-16T14:01:08;25.80;77.30
68354;DHT22;55274;43.060;25.618;2023-05-16T14:03:33;25.60;77.40
68354;DHT22;55274;43.060;25.618;2023-05-16T14:06:01;25.60;76.30
68354;DHT22;55274;43.060;25.618;2023-05-16T14:08:27;25.50;76.60
68354;DHT22;55274;43.060;25.618;2023-05-16T14:10:53;25.50;77.80
68354;DHT22;55274;43.060;25.618;2023-05-16T14:13:19;25.40;78.20
68354;DHT22;55274;43.060;25.618;2023-05-16T14:15:45;25.40;77.70
68354;DHT22;55274;43.060;25.618;2023-05-16T14:18:11;25.50;76.00
68354;DHT22;55274;43.060;25.618;2023-05-16T14:20:37;25.50;76.30
68354;DHT22;55274;43.060;25.618;2023-05-16T14:23:03;25.60;76.00
68354;DHT22;55274;43.060;25.618;2023-05-16T14:25:29;25.50;76.40
68354;DHT22;55274;43.060;25.618;2023-05-16T14:27:55;25.50;75.10
68354;DHT22;55274;43.060;25.618;2023-05-16T14:30:20;25.50;74.20
68354;DHT22;55274;43.060;25.618;2023-05-16T14:32:46;25.50;74.70
68354;DHT22;55274;43.060;25.618;2023-05-16T14:35:12;25.50;74.90
68354;DHT22;55274;43.060;25.618;2023-05-16T14:37:38;25.50;74.00
68354;DHT22;55274;43.060;25.618;2023-05-16T14:40:04;25.60;74.90
68354;DHT22;55274;43.060;25.618;2023-05-16T14:42:30;25.60;75.40
68354;DHT22;55274;43.060;25.618;2023-05-16T14:44:56;25.60;74.40
68354;DHT22;55274;43.060;25.618;2023-05-16T14:47:22;25.50;75.50
68354;DHT22;55274;43.060;25.618;2023-05-16T14:49:48;25.40;75.20
68354;DHT22;55274;43.060;25.618;2023-05-16T14:52:14;25.40;74.50
68354;DHT22;55274;43.060;25.618;2023-05-16T14:54:40;25.40;75.30
68354;DHT22;55274;43.060;25.618;2023-05-16T14:57:05;25.30;75.10
68354;DHT22;55274;43.060;25.618;2023-05-16T14:59:31;25.20;77.10
68354;DHT22;55274;43.060;25.618;2023-05-16T15:01:57;25.10;77.30
68354;DHT22;55274;43.060;25.618;2023-05-16T15:04:24;25.10;78.00
68354;DHT22;55274;43.060;25.618;2023-05-16T15:06:50;25.10;78.20
68354;DHT22;55274;43.060;25.618;2023-05-16T15:09:16;25.00;75.80
68354;DHT22;55274;43.060;25.618;2023-05-16T15:11:43;25.00;76.10
68354;DHT22;55274;43.060;25.618;2023-05-16T15:14:10;25.00;75.80
68354;DHT22;55274;43.060;25.618;2023-05-16T15:16:36;24.90;76.10
68354;DHT22;55274;43.060;25.618;2023-05-16T15:19:01;24.80;75.10
68354;DHT22;55274;43.060;25.618;2023-05-16T15:21:27;24.80;75.90
68354;DHT22;55274;43.060;25.618;2023-05-16T15:23:53;24.70;75.20
68354;DHT22;55274;43.060;25.618;2023-05-16T15:26:22;24.60;75.40
68354;DHT22;55274;43.060;25.618;2023-05-16T15:28:47;24.60;74.90